Time;durP1;ratioP1;P1;durP2;ratioP2;P2;SDS_P1;SDS_P2;PMS_P1;PMS_P2;Temp;Humidity;BMP_temperature;BMP_pressure;BME280_temperature;BME280_humidity;BME280_pressure;Samples;Min_cycle;Max_cycle;Signal;HPM_P1;HPM_P2
2022/11/23 00:00:48;;;;;;;;;;;19.30;41.20;;;;;;5042229;28;19916;-67
2022/11/23 00:03:15;;;;;;;;;;;19.30;41.20;;;;;;5045376;28;19931;-67
2022/11/23 00:05:42;;;;;;;;;;;19.30;41.20;;;;;;5042433;28;19913;-67
2022/11/23 00:08:10;;;;;;;;;;;19.30;41.20;;;;;;5051010;28;19909;-67
2022/11/23 00:10:37;;;;;;;;;;;19.30;41.20;;;;;;5045008;28;19932;-67
2022/11/23 00:13:03;;;;;;;;;;;19.30;41.30;;;;;;5042208;28;19932;-67
2022/11/23 00:15:31;;;;;;;;;;;19.30;41.30;;;;;;5050818;28;19913;-66
2022/11/23 00:17:58;;;;;;;;;;;19.30;41.30;;;;;;5047186;28;19972;-66
2022/11/23 00:20:25;;;;;;;;;;;19.30;41.30;;;;;;5046810;28;19920;-67
2022/11/23 00:22:52;;;;;;;;;;;19.30;41.30;;;;;;5042118;28;19913;-67
2022/11/23 00:25:20;;;;;;;;;;;19.30;41.30;;;;;;5036877;28;19943;-67
2022/11/23 00:27:47;;;;;;;;;;;19.30;41.30;;;;;;5052411;28;19909;-67
2022/11/23 00:30:14;;;;;;;;;;;19.30;41.30;;;;;;5066311;28;19913;-67
2022/11/23 00:32:42;;;;;;;;;;;19.30;41.30;;;;;;5046958;28;19921;-66
2022/11/23 00:35:09;;;;;;;;;;;19.30;41.30;;;;;;5041641;28;19909;-67
2022/11/23 00:37:35;;;;;;;;;;;19.30;41.30;;;;;;5046230;28;19914;-67
2022/11/23 00:40:02;;;;;;;;;;;19.30;41.30;;;;;;5068368;28;19916;-66
2022/11/23 00:42:30;;;;;;;;;;;19.30;41.30;;;;;;5067168;28;19932;-67
2022/11/23 00:44:57;;;;;;;;;;;19.30;41.40;;;;;;5063901;28;19913;-66
2022/11/23 00:47:24;;;;;;;;;;;19.30;41.40;;;;;;5047766;28;19909;-67
2022/11/23 00:49:50;;;;;;;;;;;19.30;41.40;;;;;;5051401;28;19913;-67
2022/11/23 00:52:17;;;;;;;;;;;19.30;41.40;;;;;;5045968;28;19976;-67
2022/11/23 00:54:44;;;;;;;;;;;19.30;41.40;;;;;;5051434;28;19915;-66
2022/11/23 00:57:11;;;;;;;;;;;19.30;41.40;;;;;;5060790;28;19918;-67
2022/11/23 00:59:39;;;;;;;;;;;19.30;41.40;;;;;;5039443;28;19909;-68
2022/11/23 01:02:06;;;;;;;;;;;19.30;41.40;;;;;;5041708;28;20070;-68
2022/11/23 01:04:32;;;;;;;;;;;19.30;41.40;;;;;;5061867;28;19909;-66
2022/11/23 01:06:59;;;;;;;;;;;19.30;41.40;;;;;;5058114;28;19909;-66
2022/11/23 01:09:26;;;;;;;;;;;19.30;41.40;;;;;;5064881;28;19976;-67
2022/11/23 01:11:53;;;;;;;;;;;19.30;41.40;;;;;;5036824;28;19909;-66
2022/11/23 01:14:20;;;;;;;;;;;19.30;41.40;;;;;;5049837;28;19920;-66
2022/11/23 01:16:48;;;;;;;;;;;19.30;41.40;;;;;;5057384;28;19920;-67
2022/11/23 01:19:15;;;;;;;;;;;19.20;41.30;;;;;;5043328;28;19913;-66
2022/11/23 01:21:42;;;;;;;;;;;19.30;41.40;;;;;;5044991;28;19909;-67
2022/11/23 01:24:09;;;;;;;;;;;19.20;41.30;;;;;;5078942;28;19915;-66
2022/11/23 01:26:36;;;;;;;;;;;19.30;41.40;;;;;;5050134;28;19936;-67
2022/11/23 01:29:03;;;;;;;;;;;19.20;41.40;;;;;;5052085;28;19940;-67
2022/11/23 01:31:30;;;;;;;;;;;19.20;41.40;;;;;;5029116;28;19932;-67
2022/11/23 01:33:58;;;;;;;;;;;19.20;41.40;;;;;;5044153;28;19909;-67
2022/11/23 01:36:26;;;;;;;;;;;19.30;41.50;;;;;;5046919;28;19956;-67
2022/11/23 01:38:52;;;;;;;;;;;19.20;41.40;;;;;;5068686;28;19909;-66
2022/11/23 01:41:20;;;;;;;;;;;19.30;41.50;;;;;;5044944;28;19909;-66
2022/11/23 01:43:46;;;;;;;;;;;19.20;41.30;;;;;;5042708;28;19909;-67
2022/11/23 01:46:13;;;;;;;;;;;19.20;41.30;;;;;;5044009;28;19932;-67
2022/11/23 01:48:40;;;;;;;;;;;19.20;41.30;;;;;;5055537;28;19917;-66
2022/11/23 01:51:09;;;;;;;;;;;19.20;41.30;;;;;;5050792;28;19913;-66
2022/11/23 01:53:36;;;;;;;;;;;19.20;41.30;;;;;;5042366;28;19909;-67
2022/11/23 01:56:03;;;;;;;;;;;19.20;41.30;;;;;;5047733;28;19923;-67
2022/11/23 01:58:31;;;;;;;;;;;19.20;41.30;;;;;;5042936;28;19951;-67
2022/11/23 02:00:58;;;;;;;;;;;19.20;41.30;;;;;;5042765;28;19915;-67
2022/11/23 02:03:24;;;;;;;;;;;19.20;41.30;;;;;;5044354;28;19917;-67
2022/11/23 02:05:58;;;;;;;;;;;19.20;41.30;;;;;;5048941;28;19909;-68
2022/11/23 02:08:26;;;;;;;;;;;19.20;41.30;;;;;;5049392;28;19909;-67
2022/11/23 02:10:52;;;;;;;;;;;19.20;41.30;;;;;;5068310;28;19917;-67
2022/11/23 02:13:19;;;;;;;;;;;19.20;41.30;;;;;;5042305;28;19932;-67
2022/11/23 02:15:46;;;;;;;;;;;19.20;41.30;;;;;;5052318;28;19923;-67
2022/11/23 02:18:14;;;;;;;;;;;19.20;41.30;;;;;;5057136;28;19909;-67
2022/11/23 02:20:41;;;;;;;;;;;19.20;41.30;;;;;;5063321;28;19912;-67
2022/11/23 02:23:14;;;;;;;;;;;19.20;41.30;;;;;;5046885;28;19924;-67
2022/11/23 02:25:44;;;;;;;;;;;19.20;41.30;;;;;;5052158;28;19979;-67
2022/11/23 02:28:13;;;;;;;;;;;19.20;41.20;;;;;;5053044;28;19916;-67
2022/11/23 02:30:40;;;;;;;;;;;19.20;41.20;;;;;;5042601;28;19931;-67
2022/11/23 02:33:07;;;;;;;;;;;19.20;41.20;;;;;;5045636;28;19909;-67
2022/11/23 02:35:33;;;;;;;;;;;19.20;41.20;;;;;;5038890;28;19913;-67
2022/11/23 02:38:03;;;;;;;;;;;19.20;41.20;;;;;;5064733;28;19913;-67
2022/11/23 02:40:31;;;;;;;;;;;19.20;41.20;;;;;;5063490;28;19959;-66
2022/11/23 02:42:57;;;;;;;;;;;19.20;41.20;;;;;;5053283;28;19924;-66
2022/11/23 02:45:29;;;;;;;;;;;19.20;41.20;;;;;;5043285;28;19909;-66
2022/11/23 02:47:58;;;;;;;;;;;19.20;41.20;;;;;;5054950;28;19931;-66
2022/11/23 02:50:25;;;;;;;;;;;19.20;41.20;;;;;;5054516;28;19909;-67
2022/11/23 02:52:52;;;;;;;;;;;19.20;41.20;;;;;;5079189;28;19987;-67
2022/11/23 02:55:18;;;;;;;;;;;19.20;41.20;;;;;;5062064;28;19931;-66
2022/11/23 02:57:45;;;;;;;;;;;19.20;41.20;;;;;;5067932;28;19909;-66
2022/11/23 03:00:13;;;;;;;;;;;19.20;41.20;;;;;;5055058;28;19917;-67
2022/11/23 03:02:41;;;;;;;;;;;19.20;41.20;;;;;;5041781;28;19913;-66
2022/11/23 03:05:08;;;;;;;;;;;19.20;41.20;;;;;;5040914;28;19917;-68
2022/11/23 03:07:35;;;;;;;;;;;19.20;41.20;;;;;;5039767;28;19972;-66
2022/11/23 03:10:02;;;;;;;;;;;19.20;41.20;;;;;;5050770;28;19909;-67
2022/11/23 03:12:29;;;;;;;;;;;19.20;41.20;;;;;;5058643;28;19909;-65
2022/11/23 03:14:55;;;;;;;;;;;19.10;41.10;;;;;;5058367;28;19980;-67
2022/11/23 03:17:22;;;;;;;;;;;19.10;41.10;;;;;;5040141;28;19913;-67
2022/11/23 03:19:50;;;;;;;;;;;19.20;41.20;;;;;;5055421;28;19912;-66
2022/11/23 03:22:17;;;;;;;;;;;19.10;41.10;;;;;;5056074;28;19909;-66
2022/11/23 03:24:46;;;;;;;;;;;19.20;41.20;;;;;;5041466;28;19936;-67
2022/11/23 03:27:13;;;;;;;;;;;19.10;41.10;;;;;;5062821;28;19923;-67
2022/11/23 03:29:42;;;;;;;;;;;19.10;41.10;;;;;;5077429;28;19909;-67
2022/11/23 03:32:09;;;;;;;;;;;19.10;41.10;;;;;;5040339;28;19914;-68
2022/11/23 03:34:36;;;;;;;;;;;19.10;41.10;;;;;;5057854;28;20025;-67
2022/11/23 03:37:04;;;;;;;;;;;19.20;41.10;;;;;;5052097;28;19941;-67
2022/11/23 03:39:35;;;;;;;;;;;19.10;41.00;;;;;;5048373;28;19976;-66
2022/11/23 03:42:01;;;;;;;;;;;19.10;41.10;;;;;;5054875;28;19915;-66
2022/11/23 03:44:28;;;;;;;;;;;19.20;41.10;;;;;;5048035;28;19924;-66
2022/11/23 03:46:55;;;;;;;;;;;19.10;41.00;;;;;;5052156;28;19909;-66
2022/11/23 03:49:22;;;;;;;;;;;19.10;41.00;;;;;;5045370;28;19976;-66
2022/11/23 03:51:51;;;;;;;;;;;19.10;41.00;;;;;;5039793;28;19939;-66
2022/11/23 03:54:19;;;;;;;;;;;19.10;41.00;;;;;;5041895;28;19913;-66
2022/11/23 03:56:45;;;;;;;;;;;19.10;41.00;;;;;;5053428;28;19919;-68
2022/11/23 03:59:12;;;;;;;;;;;19.10;41.00;;;;;;5068405;28;19915;-68
2022/11/23 04:01:39;;;;;;;;;;;19.10;41.00;;;;;;5051642;28;19915;-66
2022/11/23 04:04:06;;;;;;;;;;;19.10;41.00;;;;;;5057336;28;19909;-67
2022/11/23 04:06:33;;;;;;;;;;;19.10;41.00;;;;;;5040972;28;19909;-67
2022/11/23 04:09:00;;;;;;;;;;;19.20;41.10;;;;;;5056599;28;19932;-66
2022/11/23 04:11:28;;;;;;;;;;;19.10;41.00;;;;;;5042935;28;19921;-65
2022/11/23 04:13:54;;;;;;;;;;;19.20;41.10;;;;;;5047422;28;19909;-66
2022/11/23 04:16:21;;;;;;;;;;;19.10;41.50;;;;;;5046929;28;19917;-66
2022/11/23 04:18:48;;;;;;;;;;;19.10;41.00;;;;;;5039017;28;19932;-66
2022/11/23 04:21:15;;;;;;;;;;;19.10;41.00;;;;;;5070371;28;19909;-66
2022/11/23 04:23:41;;;;;;;;;;;19.10;40.90;;;;;;5057491;28;19909;-66
2022/11/23 04:26:08;;;;;;;;;;;19.10;40.90;;;;;;5053297;28;19923;-66
2022/11/23 04:28:36;;;;;;;;;;;19.10;41.00;;;;;;5055960;28;19913;-66
2022/11/23 04:31:03;;;;;;;;;;;19.10;40.90;;;;;;5041279;28;19989;-67
2022/11/23 04:33:30;;;;;;;;;;;19.10;40.90;;;;;;5056840;28;19915;-67
2022/11/23 04:35:57;;;;;;;;;;;19.10;40.90;;;;;;5046005;28;19913;-66
2022/11/23 04:38:24;;;;;;;;;;;19.10;40.90;;;;;;5043004;28;19947;-66
2022/11/23 04:40:50;;;;;;;;;;;19.10;40.90;;;;;;5067975;28;19909;-67
2022/11/23 04:43:22;;;;;;;;;;;19.10;40.90;;;;;;5041748;28;19915;-68
2022/11/23 04:45:50;;;;;;;;;;;19.10;40.90;;;;;;5050861;28;19909;-67
2022/11/23 04:48:17;;;;;;;;;;;19.10;40.90;;;;;;5046510;28;19913;-66
2022/11/23 04:50:44;;;;;;;;;;;19.10;40.90;;;;;;5041792;28;19944;-67
2022/11/23 04:53:11;;;;;;;;;;;19.10;40.90;;;;;;5051191;28;19924;-67
2022/11/23 04:55:37;;;;;;;;;;;19.10;40.90;;;;;;5051187;28;19912;-66
2022/11/23 04:58:04;;;;;;;;;;;19.10;40.90;;;;;;5044540;28;19977;-67
2022/11/23 05:00:31;;;;;;;;;;;19.10;40.90;;;;;;5034034;28;19909;-67
2022/11/23 05:03:11;;;;;;;;;;;19.10;40.90;;;;;;5060035;28;19915;-67
2022/11/23 05:05:38;;;;;;;;;;;19.10;40.90;;;;;;5044661;28;19984;-66
2022/11/23 05:08:05;;;;;;;;;;;19.10;40.90;;;;;;5057820;28;19913;-67
2022/11/23 05:10:32;;;;;;;;;;;19.10;40.90;;;;;;5043997;28;19909;-66
2022/11/23 05:12:59;;;;;;;;;;;19.10;40.90;;;;;;4978101;28;1835578;-66
2022/11/23 05:15:25;;;;;;;;;;;19.10;40.90;;;;;;5054152;28;19909;-67
2022/11/23 05:17:52;;;;;;;;;;;19.10;40.90;;;;;;5061935;28;19913;-66
2022/11/23 05:20:21;;;;;;;;;;;19.10;40.90;;;;;;5055676;28;19908;-67
2022/11/23 05:22:48;;;;;;;;;;;19.10;40.90;;;;;;5070267;28;19920;-67
2022/11/23 05:25:14;;;;;;;;;;;19.10;40.90;;;;;;5061256;28;19943;-67
2022/11/23 05:27:41;;;;;;;;;;;19.10;40.90;;;;;;5043341;28;19913;-67
2022/11/23 05:30:08;;;;;;;;;;;19.10;40.90;;;;;;5046942;28;19966;-67
2022/11/23 05:32:35;;;;;;;;;;;19.10;40.90;;;;;;5069595;28;19909;-67
2022/11/23 05:35:02;;;;;;;;;;;19.10;40.90;;;;;;5056667;28;19931;-67
2022/11/23 05:37:30;;;;;;;;;;;19.10;40.90;;;;;;5049784;28;19909;-67
2022/11/23 05:39:57;;;;;;;;;;;19.10;40.80;;;;;;5051899;28;19948;-66
2022/11/23 05:42:24;;;;;;;;;;;19.10;40.90;;;;;;5070514;28;19917;-70
2022/11/23 05:44:50;;;;;;;;;;;19.10;40.90;;;;;;5057850;28;19968;-66
2022/11/23 05:47:17;;;;;;;;;;;19.10;40.80;;;;;;5060823;28;19913;-66
2022/11/23 05:49:44;;;;;;;;;;;19.10;40.90;;;;;;5049753;28;19996;-67
2022/11/23 05:52:11;;;;;;;;;;;19.10;40.90;;;;;;5064167;28;19932;-66
2022/11/23 05:54:39;;;;;;;;;;;19.10;40.90;;;;;;5044684;28;19908;-67
2022/11/23 05:57:05;;;;;;;;;;;19.10;40.80;;;;;;5052509;28;19980;-67
2022/11/23 05:59:32;;;;;;;;;;;19.10;40.80;;;;;;5055624;28;19910;-67
2022/11/23 06:01:59;;;;;;;;;;;19.10;40.90;;;;;;5057620;28;19939;-67
2022/11/23 06:04:26;;;;;;;;;;;19.10;40.80;;;;;;5048269;28;19932;-67
2022/11/23 06:06:56;;;;;;;;;;;19.10;40.80;;;;;;5046032;28;19913;-67
2022/11/23 06:09:22;;;;;;;;;;;19.10;40.90;;;;;;5057318;28;19940;-67
2022/11/23 06:11:51;;;;;;;;;;;19.10;40.80;;;;;;5055839;28;19909;-66
2022/11/23 06:14:18;;;;;;;;;;;19.10;40.80;;;;;;5041835;28;19917;-67
2022/11/23 06:16:45;;;;;;;;;;;19.10;40.90;;;;;;5059045;28;19940;-67
2022/11/23 06:19:11;;;;;;;;;;;19.10;40.90;;;;;;5051246;28;19921;-66
2022/11/23 06:21:38;;;;;;;;;;;19.10;40.90;;;;;;5053432;28;19909;-67
2022/11/23 06:24:05;;;;;;;;;;;19.10;40.90;;;;;;5057200;28;19923;-67
2022/11/23 06:26:32;;;;;;;;;;;19.10;40.90;;;;;;5073963;28;19912;-67
2022/11/23 06:29:00;;;;;;;;;;;19.10;40.90;;;;;;5048471;28;19932;-66
2022/11/23 06:31:27;;;;;;;;;;;19.10;40.90;;;;;;5052208;28;19932;-66
2022/11/23 06:33:54;;;;;;;;;;;19.10;40.90;;;;;;5066634;28;19913;-67
2022/11/23 06:36:20;;;;;;;;;;;19.10;40.90;;;;;;5047139;28;19924;-67
2022/11/23 06:38:47;;;;;;;;;;;19.10;40.90;;;;;;5044854;28;19917;-66
2022/11/23 06:41:14;;;;;;;;;;;19.10;40.90;;;;;;5063961;28;19943;-66
2022/11/23 06:43:41;;;;;;;;;;;19.10;40.90;;;;;;5042425;28;19913;-67
2022/11/23 06:46:09;;;;;;;;;;;19.10;40.90;;;;;;5044498;28;19932;-66
2022/11/23 06:48:39;;;;;;;;;;;19.10;40.90;;;;;;5058287;28;19908;-67
2022/11/23 06:51:06;;;;;;;;;;;19.10;40.90;;;;;;5050927;28;19935;-67
2022/11/23 06:53:32;;;;;;;;;;;19.10;40.90;;;;;;5055168;28;19908;-67
2022/11/23 06:55:59;;;;;;;;;;;19.10;40.90;;;;;;5050090;28;20540;-67
2022/11/23 06:58:26;;;;;;;;;;;19.10;40.90;;;;;;5043247;28;19913;-67
2022/11/23 07:00:53;;;;;;;;;;;19.10;40.90;;;;;;5058911;28;19913;-66
2022/11/23 07:03:22;;;;;;;;;;;19.10;40.90;;;;;;5049125;28;19909;-67
2022/11/23 07:05:49;;;;;;;;;;;19.10;40.90;;;;;;5055309;28;19936;-67
2022/11/23 07:08:16;;;;;;;;;;;19.10;40.90;;;;;;5043342;28;19913;-67
2022/11/23 07:10:42;;;;;;;;;;;19.10;40.90;;;;;;5054044;28;19924;-67
2022/11/23 07:13:10;;;;;;;;;;;19.10;40.90;;;;;;5045827;28;19915;-68
2022/11/23 07:15:39;;;;;;;;;;;19.10;41.00;;;;;;5040700;28;19941;-66
2022/11/23 07:18:06;;;;;;;;;;;19.10;41.00;;;;;;5048798;28;19925;-67
2022/11/23 07:20:34;;;;;;;;;;;19.10;40.90;;;;;;5048158;28;19909;-66
2022/11/23 07:23:01;;;;;;;;;;;19.10;41.00;;;;;;5074899;28;19931;-68
2022/11/23 07:25:29;;;;;;;;;;;19.00;41.40;;;;;;5050998;28;19913;-67
2022/11/23 07:27:56;;;;;;;;;;;19.10;40.90;;;;;;5048847;28;19940;-67
2022/11/23 07:30:23;;;;;;;;;;;19.10;40.90;;;;;;5038535;28;19916;-67
2022/11/23 07:32:50;;;;;;;;;;;19.10;41.00;;;;;;5041058;28;19916;-67
2022/11/23 07:35:17;;;;;;;;;;;19.10;41.00;;;;;;5048150;28;19910;-67
2022/11/23 07:37:45;;;;;;;;;;;19.10;40.90;;;;;;5064914;28;19919;-67
2022/11/23 07:40:12;;;;;;;;;;;19.00;40.80;;;;;;5045314;28;19932;-67
2022/11/23 07:42:39;;;;;;;;;;;19.10;40.90;;;;;;5042744;28;19909;-67
2022/11/23 07:45:06;;;;;;;;;;;19.10;41.00;;;;;;5046358;28;19917;-67
2022/11/23 07:47:33;;;;;;;;;;;19.10;41.00;;;;;;5048871;28;19913;-68
2022/11/23 07:50:04;;;;;;;;;;;19.00;40.90;;;;;;5061301;28;19909;-67
2022/11/23 07:52:31;;;;;;;;;;;19.10;41.00;;;;;;5074808;28;19936;-67
2022/11/23 07:55:00;;;;;;;;;;;19.10;41.00;;;;;;5057658;28;19924;-67
2022/11/23 07:57:26;;;;;;;;;;;19.00;40.90;;;;;;5041706;28;19909;-66
2022/11/23 07:59:53;;;;;;;;;;;19.10;41.00;;;;;;5058489;28;19913;-67
2022/11/23 08:02:20;;;;;;;;;;;19.00;40.90;;;;;;5040406;28;19917;-71
2022/11/23 08:04:47;;;;;;;;;;;19.10;39.80;;;;;;5023556;28;19973;-69
2022/11/23 08:07:13;;;;;;;;;;;19.00;38.30;;;;;;5040860;28;19909;-68
2022/11/23 08:09:40;;;;;;;;;;;19.00;38.70;;;;;;5037378;28;19910;-70
2022/11/23 08:12:10;;;;;;;;;;;18.90;39.00;;;;;;5051959;28;19944;-68
2022/11/23 08:14:37;;;;;;;;;;;18.90;39.40;;;;;;5075146;28;19975;-69
2022/11/23 08:17:04;;;;;;;;;;;18.90;39.60;;;;;;5054127;28;19931;-69
2022/11/23 08:19:32;;;;;;;;;;;18.90;39.70;;;;;;5055531;28;19909;-68
2022/11/23 08:22:01;;;;;;;;;;;18.90;39.90;;;;;;5044799;28;19948;-69
2022/11/23 08:24:27;;;;;;;;;;;18.90;40.00;;;;;;5049129;28;19909;-68
2022/11/23 08:26:54;;;;;;;;;;;18.90;40.10;;;;;;5057681;28;19910;-68
2022/11/23 08:29:22;;;;;;;;;;;18.90;40.10;;;;;;5043655;28;19993;-68
2022/11/23 08:31:49;;;;;;;;;;;18.90;40.20;;;;;;5051083;28;19972;-68
2022/11/23 08:34:17;;;;;;;;;;;18.90;40.20;;;;;;5051701;28;19909;-68
2022/11/23 08:36:44;;;;;;;;;;;18.90;40.30;;;;;;5064414;28;19973;-68
2022/11/23 08:39:13;;;;;;;;;;;18.90;40.30;;;;;;5065637;28;19980;-68
2022/11/23 08:41:39;;;;;;;;;;;19.00;40.40;;;;;;5063369;28;19927;-68
2022/11/23 08:44:08;;;;;;;;;;;19.00;40.40;;;;;;5049911;28;19917;-69
2022/11/23 08:46:36;;;;;;;;;;;19.00;40.40;;;;;;5062800;28;19966;-68
2022/11/23 08:49:03;;;;;;;;;;;19.00;40.50;;;;;;5050964;28;19943;-69
2022/11/23 08:51:30;;;;;;;;;;;19.00;40.50;;;;;;5049149;28;19909;-68
2022/11/23 08:53:57;;;;;;;;;;;19.00;40.50;;;;;;5050473;28;19921;-68
2022/11/23 08:56:24;;;;;;;;;;;19.00;40.50;;;;;;5043496;28;19913;-68
2022/11/23 08:58:50;;;;;;;;;;;19.00;40.60;;;;;;5050793;28;19913;-68
2022/11/23 09:01:17;;;;;;;;;;;19.00;40.60;;;;;;5039420;28;19917;-68
2022/11/23 09:03:45;;;;;;;;;;;19.10;40.60;;;;;;5034715;28;19909;-69
2022/11/23 09:06:12;;;;;;;;;;;19.00;40.60;;;;;;5054268;28;19940;-68
2022/11/23 09:08:39;;;;;;;;;;;19.10;40.60;;;;;;5059056;28;19969;-68
2022/11/23 09:11:06;;;;;;;;;;;19.10;40.60;;;;;;5049895;28;19939;-67
2022/11/23 09:13:34;;;;;;;;;;;19.10;40.70;;;;;;5042052;28;19973;-68
2022/11/23 09:16:01;;;;;;;;;;;19.10;40.70;;;;;;5041969;28;19913;-68
2022/11/23 09:18:29;;;;;;;;;;;19.10;40.70;;;;;;5051477;28;19913;-68
2022/11/23 09:20:57;;;;;;;;;;;19.10;40.70;;;;;;5045408;28;19909;-68
2022/11/23 09:23:25;;;;;;;;;;;19.10;40.70;;;;;;5041873;28;19909;-68
2022/11/23 09:25:52;;;;;;;;;;;19.10;40.70;;;;;;5062028;28;19919;-67
2022/11/23 09:28:19;;;;;;;;;;;19.10;40.70;;;;;;5045530;28;19911;-66
2022/11/23 09:30:46;;;;;;;;;;;19.10;40.70;;;;;;5043899;28;19940;-67
2022/11/23 09:33:13;;;;;;;;;;;19.20;40.90;;;;;;5045254;28;19932;-67
2022/11/23 09:35:40;;;;;;;;;;;19.10;40.80;;;;;;5065336;28;19913;-67
2022/11/23 09:38:08;;;;;;;;;;;19.10;40.80;;;;;;5047751;28;19975;-67
2022/11/23 09:40:36;;;;;;;;;;;19.20;40.90;;;;;;5069144;28;19916;-66
2022/11/23 09:43:17;;;;;;;;;;;19.10;40.80;;;;;;5072335;28;19931;-67
2022/11/23 09:45:46;;;;;;;;;;;19.10;40.80;;;;;;5041859;28;19935;-67
2022/11/23 09:48:39;;;;;;;;;;;19.10;40.80;;;;;;5053603;28;19960;-68
2022/11/23 09:51:09;;;;;;;;;;;19.20;40.90;;;;;;5009643;28;19909;-67
2022/11/23 09:53:38;;;;;;;;;;;19.20;41.00;;;;;;5042669;28;19910;-68
2022/11/23 09:56:06;;;;;;;;;;;19.20;41.00;;;;;;5064001;28;20436;-68
2022/11/23 09:58:33;;;;;;;;;;;19.20;41.60;;;;;;5040022;28;19915;-68
2022/11/23 10:01:00;;;;;;;;;;;19.20;41.00;;;;;;5074823;28;19916;-68
2022/11/23 10:03:27;;;;;;;;;;;19.20;41.00;;;;;;5052197;28;19924;-67
2022/11/23 10:05:57;;;;;;;;;;;19.20;41.00;;;;;;5048403;28;19971;-67
2022/11/23 10:08:26;;;;;;;;;;;19.20;41.00;;;;;;5045969;28;19911;-66
2022/11/23 10:10:57;;;;;;;;;;;19.20;41.10;;;;;;5044286;28;19976;-66
2022/11/23 10:13:29;;;;;;;;;;;19.20;41.00;;;;;;5047161;28;19913;-68
2022/11/23 10:16:00;;;;;;;;;;;19.20;41.00;;;;;;5059158;28;19909;-68
2022/11/23 10:18:29;;;;;;;;;;;19.20;41.10;;;;;;5045811;28;19935;-69
2022/11/23 10:20:58;;;;;;;;;;;19.20;41.10;;;;;;5047080;28;19909;-68
2022/11/23 10:23:31;;;;;;;;;;;19.30;41.20;;;;;;5050325;28;19952;-67
2022/11/23 10:26:00;;;;;;;;;;;19.30;41.20;;;;;;5065907;28;19909;-67
2022/11/23 10:28:28;;;;;;;;;;;19.30;41.20;;;;;;5065638;28;19932;-64
2022/11/23 10:30:55;;;;;;;;;;;19.30;41.80;;;;;;5046165;28;19932;-68
2022/11/23 10:33:24;;;;;;;;;;;19.30;41.20;;;;;;5042070;28;19913;-69
2022/11/23 10:35:51;;;;;;;;;;;19.30;41.20;;;;;;5045438;28;19924;-67
2022/11/23 10:38:18;;;;;;;;;;;19.30;41.30;;;;;;5043117;28;19941;-66
2022/11/23 10:40:46;;;;;;;;;;;19.30;41.30;;;;;;5046061;28;19909;-67
2022/11/23 10:43:15;;;;;;;;;;;19.30;41.30;;;;;;5059838;28;19936;-66
2022/11/23 10:45:42;;;;;;;;;;;19.30;41.30;;;;;;5043014;28;19909;-68
2022/11/23 10:48:09;;;;;;;;;;;19.30;41.30;;;;;;5044377;28;19977;-66
2022/11/23 10:50:39;;;;;;;;;;;19.30;41.30;;;;;;5067684;28;19909;-67
2022/11/23 10:53:14;;;;;;;;;;;19.30;41.30;;;;;;5049537;28;19932;-68
2022/11/23 10:55:46;;;;;;;;;;;19.30;41.40;;;;;;5046619;28;19920;-68
2022/11/23 10:58:16;;;;;;;;;;;19.30;41.40;;;;;;5044718;28;19913;-68
2022/11/23 11:00:43;;;;;;;;;;;19.30;41.40;;;;;;5052639;28;20167;-67
2022/11/23 11:03:20;;;;;;;;;;;19.40;41.50;;;;;;5051091;28;19913;-69
2022/11/23 11:05:48;;;;;;;;;;;19.40;41.50;;;;;;5044683;28;19917;-73
2022/11/23 11:08:16;;;;;;;;;;;19.40;40.90;;;;;;5041352;28;19915;-67
2022/11/23 11:10:44;;;;;;;;;;;19.30;40.30;;;;;;5039243;28;19916;-68
2022/11/23 11:13:25;;;;;;;;;;;19.30;40.60;;;;;;5031998;28;19931;-69
2022/11/23 11:15:53;;;;;;;;;;;19.20;40.70;;;;;;5029221;28;19976;-68
2022/11/23 11:18:20;;;;;;;;;;;19.20;40.80;;;;;;5037380;28;19932;-68
2022/11/23 11:20:47;;;;;;;;;;;19.20;40.90;;;;;;5039129;28;19913;-68
2022/11/23 11:23:16;;;;;;;;;;;19.20;41.00;;;;;;5036266;28;19924;-67
2022/11/23 11:25:43;;;;;;;;;;;19.20;41.10;;;;;;5051434;28;19909;-67
2022/11/23 11:28:18;;;;;;;;;;;19.20;41.10;;;;;;5033169;28;19939;-67
2022/11/23 11:30:48;;;;;;;;;;;19.20;41.20;;;;;;5047404;28;19914;-67
2022/11/23 11:33:17;;;;;;;;;;;19.20;41.20;;;;;;5048403;28;19932;-68
2022/11/23 11:35:46;;;;;;;;;;;19.20;41.20;;;;;;5040900;28;19909;-68
2022/11/23 11:38:13;;;;;;;;;;;19.30;41.30;;;;;;5030221;28;19931;-68
2022/11/23 11:40:42;;;;;;;;;;;19.30;41.30;;;;;;5065618;28;19919;-68
2022/11/23 11:43:10;;;;;;;;;;;19.30;41.30;;;;;;5042060;28;19917;-67
2022/11/23 11:45:37;;;;;;;;;;;19.30;41.30;;;;;;5037481;28;19913;-67
2022/11/23 11:48:08;;;;;;;;;;;19.30;41.40;;;;;;5043531;28;19909;-68
2022/11/23 11:50:36;;;;;;;;;;;19.30;41.40;;;;;;5050732;28;19944;-68
2022/11/23 11:53:04;;;;;;;;;;;19.30;41.40;;;;;;5057897;28;19940;-69
2022/11/23 11:55:33;;;;;;;;;;;19.30;41.40;;;;;;5040807;28;19932;-69
2022/11/23 11:58:02;;;;;;;;;;;19.30;41.40;;;;;;5031462;28;19980;-69
2022/11/23 12:00:29;;;;;;;;;;;19.30;41.40;;;;;;5034358;28;19909;-69
2022/11/23 12:02:57;;;;;;;;;;;19.30;41.40;;;;;;5037041;28;19913;-69
2022/11/23 12:05:26;;;;;;;;;;;19.30;41.50;;;;;;5040584;28;19923;-69
2022/11/23 12:07:55;;;;;;;;;;;19.30;41.40;;;;;;5041373;28;19909;-70
2022/11/23 12:10:24;;;;;;;;;;;19.30;41.40;;;;;;5035227;28;19913;-69
2022/11/23 12:12:51;;;;;;;;;;;19.30;41.40;;;;;;5043319;28;19933;-69
2022/11/23 12:15:22;;;;;;;;;;;19.30;41.40;;;;;;5039976;28;19944;-68
2022/11/23 12:17:52;;;;;;;;;;;19.40;41.50;;;;;;5040577;28;19921;-68
2022/11/23 12:20:20;;;;;;;;;;;19.30;41.50;;;;;;5040498;28;19914;-68
2022/11/23 12:22:51;;;;;;;;;;;19.40;41.50;;;;;;5039317;28;19956;-68
2022/11/23 12:25:23;;;;;;;;;;;19.30;41.50;;;;;;5058945;28;19976;-68
2022/11/23 12:27:55;;;;;;;;;;;19.30;41.40;;;;;;5034293;28;19921;-68
2022/11/23 12:30:24;;;;;;;;;;;19.40;41.50;;;;;;5042173;28;19932;-68
2022/11/23 12:32:57;;;;;;;;;;;19.40;41.50;;;;;;5039918;28;19909;-69
2022/11/23 12:35:41;;;;;;;;;;;19.40;41.60;;;;;;5037340;28;19936;-69
2022/11/23 12:38:13;;;;;;;;;;;19.40;41.60;;;;;;5060673;28;19981;-69
2022/11/23 12:40:43;;;;;;;;;;;19.40;41.50;;;;;;5048912;28;19917;-69
2022/11/23 12:43:12;;;;;;;;;;;19.40;41.60;;;;;;5050977;28;19923;-68
2022/11/23 12:45:40;;;;;;;;;;;19.40;41.60;;;;;;5037827;28;19909;-68
2022/11/23 12:48:14;;;;;;;;;;;19.40;41.60;;;;;;5067804;28;19913;-68
2022/11/23 12:50:43;;;;;;;;;;;19.40;41.60;;;;;;5053570;28;19909;-67
2022/11/23 12:53:19;;;;;;;;;;;19.40;41.70;;;;;;5061295;28;19913;-68
2022/11/23 12:55:47;;;;;;;;;;;19.40;41.70;;;;;;5043110;28;19913;-67
2022/11/23 12:58:16;;;;;;;;;;;19.40;41.70;;;;;;5054857;28;19972;-67
2022/11/23 13:00:43;;;;;;;;;;;19.40;41.70;;;;;;5046700;28;19913;-67
2022/11/23 13:03:34;;;;;;;;;;;19.40;41.80;;;;;;5052278;28;19933;-68
2022/11/23 13:06:13;;;;;;;;;;;19.40;41.80;;;;;;5045147;28;19909;-69
2022/11/23 13:08:58;;;;;;;;;;;19.40;41.80;;;;;;5047873;28;19917;-69
2022/11/23 13:11:30;;;;;;;;;;;19.40;41.90;;;;;;5068616;28;19908;-64
2022/11/23 13:14:03;;;;;;;;;;;19.40;41.90;;;;;;5057299;28;19914;-66
2022/11/23 13:16:36;;;;;;;;;;;19.50;42.00;;;;;;5044643;28;19923;-68
2022/11/23 13:19:10;;;;;;;;;;;19.50;42.00;;;;;;5042034;28;19910;-66
2022/11/23 13:21:37;;;;;;;;;;;19.50;42.00;;;;;;5046070;28;19947;-66
2022/11/23 13:24:04;;;;;;;;;;;19.50;42.10;;;;;;5062833;28;19929;-67
2022/11/23 13:26:32;;;;;;;;;;;19.50;42.10;;;;;;5050357;28;19948;-66
2022/11/23 13:29:00;;;;;;;;;;;19.50;42.20;;;;;;5043589;28;19913;-66
2022/11/23 13:31:27;;;;;;;;;;;19.50;42.20;;;;;;5025667;28;19921;-67
2022/11/23 13:33:55;;;;;;;;;;;19.50;42.20;;;;;;5055434;28;19915;-67
2022/11/23 13:36:37;;;;;;;;;;;19.50;42.20;;;;;;5050091;28;19908;-68
2022/11/23 13:39:04;;;;;;;;;;;19.50;42.30;;;;;;5062768;28;19972;-66
2022/11/23 13:41:52;;;;;;;;;;;19.50;42.30;;;;;;5068167;28;19967;-67
2022/11/23 13:44:21;;;;;;;;;;;19.50;42.30;;;;;;5038884;28;20540;-68
2022/11/23 13:46:56;;;;;;;;;;;19.50;42.30;;;;;;5047235;28;19909;-67
2022/11/23 13:49:29;;;;;;;;;;;19.50;42.40;;;;;;5058819;28;19913;-67
2022/11/23 13:52:03;;;;;;;;;;;19.50;42.40;;;;;;5043253;28;19909;-67
2022/11/23 13:54:30;;;;;;;;;;;19.50;42.40;;;;;;5051020;28;19921;-68
2022/11/23 13:56:57;;;;;;;;;;;19.50;42.40;;;;;;5044869;28;19947;-68
2022/11/23 13:59:29;;;;;;;;;;;19.50;42.50;;;;;;5037406;28;19928;-68
2022/11/23 14:02:20;;;;;;;;;;;19.50;42.50;;;;;;5049539;28;19909;-67
2022/11/23 14:04:47;;;;;;;;;;;19.50;42.50;;;;;;5052644;28;19919;-66
2022/11/23 14:07:15;;;;;;;;;;;19.50;42.50;;;;;;5055573;28;19916;-67
2022/11/23 14:09:43;;;;;;;;;;;19.50;42.50;;;;;;5058860;28;19909;-68
2022/11/23 14:12:14;;;;;;;;;;;19.50;42.50;;;;;;5051187;28;19909;-68
2022/11/23 14:14:45;;;;;;;;;;;19.60;42.60;;;;;;5049329;28;19921;-68
2022/11/23 14:17:21;;;;;;;;;;;19.50;42.50;;;;;;5054684;28;19915;-67
2022/11/23 14:19:54;;;;;;;;;;;19.60;42.60;;;;;;5049732;28;19981;-67
2022/11/23 14:22:22;;;;;;;;;;;19.50;42.50;;;;;;5052315;28;19918;-67